Time;durP1;ratioP1;P1;durP2;ratioP2;P2;SDS_P1;SDS_P2;PMS_P1;PMS_P2;Temp;Humidity;BMP_temperature;BMP_pressure;BME280_temperature;BME280_humidity;BME280_pressure;Samples;Min_cycle;Max_cycle;Signal;HPM_P1;HPM_P2
2023/01/20 00:01:32;;;;;;;46.40;20.77;;;;;;;6.59;71.30;101114.66;5046467;28;20475;-71
2023/01/20 00:03:58;;;;;;;54.47;21.87;;;;;;;6.35;72.05;101115.25;5069821;28;20481;-71
2023/01/20 00:06:26;;;;;;;56.67;24.20;;;;;;;6.16;73.48;101119.34;5044202;28;20098;-71
2023/01/20 00:08:53;;;;;;;54.33;21.93;;;;;;;6.25;71.94;101116.84;5082145;28;20421;-71
2023/01/20 00:11:20;;;;;;;55.40;23.77;;;;;;;6.77;70.56;101108.78;5050702;28;20669;-71
2023/01/20 00:13:45;;;;;;;55.03;23.47;;;;;;;7.08;68.55;101108.19;5050690;28;20032;-71
2023/01/20 00:16:11;;;;;;;58.33;24.73;;;;;;;7.01;67.82;101112.47;5049036;28;20051;-71
2023/01/20 00:18:38;;;;;;;55.10;23.90;;;;;;;7.59;64.51;101117.25;5048369;28;20026;-71
2023/01/20 00:21:11;;;;;;;54.70;24.83;;;;;;;7.24;65.33;101107.47;5050544;28;20066;-71
2023/01/20 00:23:38;;;;;;;60.83;25.70;;;;;;;6.87;68.85;101108.84;5045882;28;20400;-71
2023/01/20 00:26:13;;;;;;;62.30;25.93;;;;;;;6.42;71.50;101122.25;5041892;28;20021;-71
2023/01/20 00:28:38;;;;;;;61.83;25.67;;;;;;;6.41;69.60;101119.63;5048552;28;20275;-71
2023/01/20 00:31:16;;;;;;;70.53;25.17;;;;;;;6.62;69.51;101125.06;5042747;28;20100;-71
2023/01/20 00:33:42;;;;;;;59.17;23.47;;;;;;;7.08;66.05;101116.00;5049724;28;20037;-71
2023/01/20 00:36:08;;;;;;;55.77;24.00;;;;;;;7.28;64.63;101117.03;5050330;28;20102;-71
2023/01/20 00:38:34;;;;;;;60.37;23.70;;;;;;;7.51;63.62;101113.72;5048662;28;20071;-71
2023/01/20 00:40:59;;;;;;;55.27;23.53;;;;;;;6.87;65.21;101119.25;5050530;28;20048;-71
2023/01/20 00:43:25;;;;;;;59.37;23.23;;;;;;;6.37;71.23;101117.84;5051540;28;20017;-71
2023/01/20 00:45:50;;;;;;;61.00;24.97;;;;;;;7.27;67.27;101120.50;5080630;28;20033;-71
2023/01/20 00:48:15;;;;;;;59.93;23.60;;;;;;;6.37;67.08;101125.66;5050065;28;20473;-71
2023/01/20 00:50:41;;;;;;;60.47;23.10;;;;;;;6.92;68.88;101122.75;5082078;28;20029;-71
2023/01/20 00:53:07;;;;;;;55.30;22.57;;;;;;;6.66;67.96;101130.28;5049126;28;20021;-71
2023/01/20 00:55:32;;;;;;;59.03;22.90;;;;;;;6.67;69.10;101132.06;5050394;28;20033;-71
2023/01/20 00:57:57;;;;;;;59.93;22.50;;;;;;;6.84;68.48;101130.50;5081948;28;20096;-71
2023/01/20 01:00:23;;;;;;;56.60;21.63;;;;;;;7.60;64.45;101123.34;5047545;28;20100;-71
2023/01/20 01:02:48;;;;;;;59.47;22.20;;;;;;;7.04;65.15;101122.03;5049493;28;20144;-71
2023/01/20 01:05:14;;;;;;;57.33;23.70;;;;;;;6.71;67.25;101136.44;5049877;28;20073;-71
2023/01/20 01:07:39;;;;;;;56.90;23.93;;;;;;;6.18;69.07;101143.59;5053892;28;20032;-71
2023/01/20 01:10:05;;;;;;;57.20;21.50;;;;;;;6.99;66.16;101144.50;5080918;28;20029;-71
2023/01/20 01:12:31;;;;;;;62.63;23.43;;;;;;;7.09;64.66;101135.94;5048246;28;20024;-71
2023/01/20 01:14:56;;;;;;;62.20;23.03;;;;;;;6.72;66.12;101152.03;5039518;28;20036;-71
2023/01/20 01:17:37;;;;;;;63.90;24.73;;;;;;;6.94;64.81;101153.13;5018586;28;20083;-71
2023/01/20 01:20:03;;;;;;;58.30;22.53;;;;;;;6.91;64.65;101147.00;5041955;28;20028;-71
2023/01/20 01:22:31;;;;;;;52.60;22.90;;;;;;;6.48;66.93;101142.22;5048704;28;20037;-71
2023/01/20 01:24:56;;;;;;;55.63;21.37;;;;;;;6.74;66.01;101150.28;5048157;28;20098;-71
2023/01/20 01:27:21;;;;;;;53.33;20.60;;;;;;;6.70;66.75;101152.84;5046842;28;20033;-72
2023/01/20 01:29:47;;;;;;;60.80;23.67;;;;;;;6.26;68.21;101162.75;5048152;28;20442;-71
2023/01/20 01:32:12;;;;;;;55.40;22.83;;;;;;;6.61;67.71;101159.69;5033897;28;20058;-71
2023/01/20 01:34:37;;;;;;;56.43;24.77;;;;;;;5.90;71.98;101169.13;5050260;28;20072;-71
2023/01/20 01:37:02;;;;;;;60.90;23.40;;;;;;;6.31;71.38;101169.72;5050546;28;20060;-71
2023/01/20 01:39:28;;;;;;;61.67;24.27;;;;;;;6.60;67.76;101173.53;5048388;28;20059;-71
2023/01/20 01:41:53;;;;;;;59.47;23.93;;;;;;;7.06;65.61;101169.69;5049195;28;20028;-71
2023/01/20 01:44:19;;;;;;;56.27;23.43;;;;;;;6.35;68.15;101166.31;5046149;28;20021;-71
2023/01/20 01:46:45;;;;;;;66.40;23.13;;;;;;;5.58;69.67;101172.09;5030869;28;20029;-71
2023/01/20 01:49:16;;;;;;;68.20;24.43;;;;;;;6.40;69.78;101173.31;5047645;28;20036;-71
2023/01/20 01:51:50;;;;;;;63.10;24.50;;;;;;;6.72;67.97;101166.75;5048432;28;20041;-71
2023/01/20 01:54:19;;;;;;;56.67;22.27;;;;;;;6.11;70.35;101172.91;5046362;28;20037;-71
2023/01/20 01:56:47;;;;;;;59.70;22.83;;;;;;;5.79;70.09;101165.50;5050145;28;20031;-71
2023/01/20 01:59:15;;;;;;;61.93;23.30;;;;;;;6.69;67.14;101172.78;5048039;28;20060;-71
2023/01/20 02:01:45;;;;;;;63.70;23.17;;;;;;;6.48;67.49;101177.72;5079020;28;20465;-71
2023/01/20 02:04:13;;;;;;;63.00;23.33;;;;;;;6.20;70.17;101173.03;5078865;28;20561;-71
2023/01/20 02:06:44;;;;;;;59.90;23.63;;;;;;;5.78;72.21;101174.13;5039985;28;20072;-71
2023/01/20 02:09:10;;;;;;;61.10;24.13;;;;;;;6.53;70.48;101170.84;5047483;28;20025;-70
2023/01/20 02:11:40;;;;;;;60.40;23.33;;;;;;;6.02;73.58;101183.19;5077455;28;20393;-71
2023/01/20 02:14:07;;;;;;;66.57;23.33;;;;;;;6.39;70.98;101175.88;5047630;28;20049;-71
2023/01/20 02:16:54;;;;;;;65.13;23.80;;;;;;;6.03;75.10;101175.41;5047448;28;20031;-71
2023/01/20 02:19:34;;;;;;;55.30;22.73;;;;;;;5.48;74.64;101170.22;5046976;28;20029;-71
2023/01/20 02:22:24;;;;;;;64.33;25.20;;;;;;;5.22;79.27;101165.47;5037375;28;20147;-71
2023/01/20 02:25:47;;;;;;;63.03;22.87;;;;;;;5.64;77.76;101170.47;5054675;28;20033;-71
2023/01/20 02:28:31;;;;;;;51.05;21.33;;;;;;;5.86;77.99;101167.31;5027003;28;20575;-71
2023/01/20 02:31:17;;;;;;;62.03;24.37;;;;;;;5.61;77.83;101166.97;5036199;28;20033;-71
2023/01/20 02:33:47;;;;;;;58.83;23.87;;;;;;;5.93;76.33;101168.28;5049062;28;20077;-72
2023/01/20 02:36:25;;;;;;;72.80;24.93;;;;;;;6.37;74.75;101160.25;5077145;28;20021;-69
2023/01/20 02:39:01;;;;;;;60.77;23.73;;;;;;;6.32;73.99;101156.75;5041365;28;20037;-70
2023/01/20 02:41:38;;;;;;;63.70;23.77;;;;;;;6.76;69.25;101158.13;5029909;28;20033;-70
2023/01/20 02:44:15;;;;;;;58.90;23.50;;;;;;;6.60;69.45;101157.94;5049827;28;20074;-70
2023/01/20 02:47:21;;;;;;;50.50;21.63;;;;;;;6.75;68.59;101161.59;5046380;28;20029;-70
2023/01/20 02:50:15;;;;;;;57.27;24.00;;;;;;;6.64;68.55;101158.00;5064081;28;20041;-70
2023/01/20 02:52:44;;;;;;;60.40;24.30;;;;;;;6.17;70.33;101167.81;5044238;28;20025;-70
2023/01/20 02:55:15;;;;;;;62.93;27.03;;;;;;;6.05;72.25;101160.72;5047433;28;20493;-70
2023/01/20 02:57:50;;;;;;;58.73;24.40;;;;;;;6.47;73.17;101163.88;5072014;28;20033;-70
2023/01/20 03:00:31;;;;;;;54.63;24.23;;;;;;;6.25;71.52;101170.50;5075053;28;20035;-70
2023/01/20 03:03:01;;;;;;;57.67;23.10;;;;;;;6.35;70.32;101166.31;5044686;28;20039;-70
2023/01/20 03:05:30;;;;;;;61.17;24.40;;;;;;;6.56;72.11;101169.16;5041945;28;20041;-72
2023/01/20 03:08:01;;;;;;;56.50;24.33;;;;;;;6.62;69.85;101165.75;5048942;28;20104;-71
2023/01/20 03:10:31;;;;;;;56.53;24.47;;;;;;;6.85;68.28;101163.41;5049599;28;20031;-72
2023/01/20 03:13:04;;;;;;;59.43;24.50;;;;;;;6.28;71.53;101161.03;5038649;28;20048;-70
2023/01/20 03:15:40;;;;;;;55.80;24.40;;;;;;;6.61;69.11;101164.03;5032620;28;20025;-71
2023/01/20 03:18:05;;;;;;;57.53;24.97;;;;;;;6.35;72.17;101155.94;5046018;28;20043;-70
2023/01/20 03:20:31;;;;;;;53.00;23.07;;;;;;;6.84;69.35;101164.28;5062812;28;20493;-71
2023/01/20 03:22:56;;;;;;;55.53;24.03;;;;;;;6.84;67.55;101166.00;5041526;28;20098;-71
2023/01/20 03:25:22;;;;;;;58.83;23.97;;;;;;;6.93;69.03;101163.50;5036276;28;20093;-71
2023/01/20 03:27:48;;;;;;;56.13;23.53;;;;;;;6.77;70.25;101159.84;5036662;28;20040;-70
2023/01/20 03:30:16;;;;;;;58.97;24.53;;;;;;;7.09;68.75;101154.13;5044379;28;20523;-70
2023/01/20 03:32:45;;;;;;;57.73;23.43;;;;;;;6.98;69.78;101159.22;5049102;28;20029;-71
2023/01/20 03:35:12;;;;;;;56.93;22.83;;;;;;;6.89;68.55;101165.19;5046719;28;20029;-71
2023/01/20 03:37:38;;;;;;;62.57;24.67;;;;;;;6.17;72.70;101166.91;5065587;28;20497;-71
2023/01/20 03:40:04;;;;;;;63.43;25.10;;;;;;;6.69;72.62;101161.50;5050174;28;20028;-70
2023/01/20 03:42:55;;;;;;;62.23;25.27;;;;;;;6.78;71.18;101156.41;5049650;28;20485;-70
2023/01/20 03:45:28;;;;;;;69.57;27.63;;;;;;;5.94;72.49;101154.47;5050531;28;20032;-71
2023/01/20 03:47:57;;;;;;;63.77;26.87;;;;;;;6.45;77.53;101152.56;5045658;28;20384;-70
2023/01/20 03:50:39;;;;;;;76.20;27.13;;;;;;;6.24;75.30;101159.25;5043817;28;20058;-70
2023/01/20 03:53:28;;;;;;;72.60;27.38;;;;;;;6.41;74.68;101155.97;5042853;28;20033;-71
2023/01/20 03:56:15;;;;;;;72.07;28.27;;;;;;;6.59;76.24;101169.22;5030155;28;20052;-71
2023/01/20 03:58:45;;;;;;;75.37;27.60;;;;;;;6.53;72.66;101160.47;5048451;28;20064;-70
2023/01/20 04:01:14;;;;;;;76.37;26.33;;;;;;;6.28;76.10;101167.97;5031007;28;20060;-70
2023/01/20 04:03:43;;;;;;;83.63;28.87;;;;;;;6.42;75.32;101178.50;5046725;28;20028;-70
2023/01/20 04:06:11;;;;;;;77.00;29.43;;;;;;;6.78;73.17;101167.66;5040406;28;20128;-70
2023/01/20 04:08:44;;;;;;;86.43;29.37;;;;;;;6.57;73.50;101172.63;5080407;28;20036;-70
2023/01/20 04:11:10;;;;;;;75.77;28.33;;;;;;;5.92;73.15;101167.44;5051029;28;20037;-71
2023/01/20 04:13:36;;;;;;;80.10;29.27;;;;;;;6.75;71.78;101167.63;5048599;28;20111;-71
2023/01/20 04:16:07;;;;;;;76.60;28.40;;;;;;;6.72;71.91;101182.34;5044356;28;20056;-71
2023/01/20 04:18:33;;;;;;;80.87;29.40;;;;;;;7.45;67.70;101170.91;5081683;28;20056;-71
2023/01/20 04:21:01;;;;;;;92.43;32.13;;;;;;;6.91;67.92;101181.69;5040008;28;20476;-71
2023/01/20 04:23:35;;;;;;;86.60;31.27;;;;;;;6.53;70.18;101171.72;5050670;28;20541;-71
2023/01/20 04:26:01;;;;;;;85.50;30.37;;;;;;;6.11;73.21;101170.31;5046932;28;20492;-71
2023/01/20 04:28:27;;;;;;;87.90;31.40;;;;;;;6.23;72.58;101173.06;5046324;28;20155;-70
2023/01/20 04:30:52;;;;;;;93.90;30.57;;;;;;;6.21;73.25;101172.19;5043826;28;20059;-71
2023/01/20 04:33:17;;;;;;;88.07;29.63;;;;;;;6.85;70.95;101178.16;5075992;28;20060;-71
2023/01/20 04:35:43;;;;;;;89.17;31.43;;;;;;;7.33;68.96;101170.81;5043568;28;20049;-71
2023/01/20 04:38:08;;;;;;;94.73;32.13;;;;;;;6.61;70.91;101177.88;5040282;28;20029;-71
2023/01/20 04:40:34;;;;;;;94.57;32.80;;;;;;;6.55;70.64;101175.22;5046513;28;20112;-71
2023/01/20 04:42:59;;;;;;;100.83;33.40;;;;;;;5.99;75.80;101177.91;5038955;28;20057;-72
2023/01/20 04:45:25;;;;;;;102.43;31.13;;;;;;;6.36;72.41;101179.31;5029717;28;20036;-71
2023/01/20 04:47:50;;;;;;;97.93;32.90;;;;;;;7.03;70.75;101187.84;5048507;28;20029;-72
2023/01/20 04:50:15;;;;;;;98.43;30.97;;;;;;;6.24;70.71;101179.16;5048823;28;20021;-71
2023/01/20 04:52:42;;;;;;;94.70;31.90;;;;;;;5.78;76.38;101176.72;5050340;28;20476;-71
2023/01/20 04:55:08;;;;;;;103.13;32.33;;;;;;;6.56;74.20;101189.94;5050585;28;20124;-71
2023/01/20 04:57:33;;;;;;;101.00;32.20;;;;;;;6.35;73.36;101202.66;5045594;28;20032;-71
2023/01/20 04:59:59;;;;;;;107.13;33.33;;;;;;;6.33;73.44;101193.97;5035949;28;20029;-71
2023/01/20 05:02:24;;;;;;;93.67;31.07;;;;;;;5.18;81.41;101187.00;5045353;28;20472;-71
2023/01/20 05:04:49;;;;;;;98.07;31.37;;;;;;;5.63;79.31;101179.09;5038477;28;20030;-71
2023/01/20 05:07:15;;;;;;;106.63;33.67;;;;;;;5.16;82.17;101188.66;5050264;28;20031;-72
2023/01/20 05:09:40;;;;;;;113.70;34.00;;;;;;;5.97;79.70;101179.59;5049250;28;20036;-71
2023/01/20 05:12:06;;;;;;;98.57;33.77;;;;;;;6.31;78.43;101190.50;5049910;28;20025;-70
2023/01/20 05:14:31;;;;;;;99.53;32.13;;;;;;;6.16;76.18;101194.59;5047028;28;20119;-71
2023/01/20 05:16:56;;;;;;;117.93;36.47;;;;;;;5.97;78.44;101202.97;5080588;28;20032;-71
2023/01/20 05:19:22;;;;;;;114.10;34.90;;;;;;;6.57;72.84;101203.81;5046991;28;20189;-72
2023/01/20 05:21:47;;;;;;;96.20;32.63;;;;;;;6.38;72.46;101207.88;5048373;28;20482;-71
2023/01/20 05:24:12;;;;;;;102.33;33.27;;;;;;;7.39;70.47;101212.47;5048647;28;20055;-71
2023/01/20 05:26:38;;;;;;;111.13;34.73;;;;;;;7.12;69.74;101221.75;5066546;28;20033;-71
2023/01/20 05:29:04;;;;;;;104.30;34.47;;;;;;;6.75;70.88;101208.34;5044261;28;20570;-72
2023/01/20 05:31:29;;;;;;;103.70;33.33;;;;;;;5.47;77.57;101220.31;5047956;28;20024;-71
2023/01/20 05:33:55;;;;;;;95.77;33.50;;;;;;;6.02;77.01;101214.31;5040011;28;20018;-72
2023/01/20 05:36:20;;;;;;;97.17;33.10;;;;;;;6.81;74.29;101218.81;5043459;28;20500;-72
2023/01/20 05:38:45;;;;;;;93.43;32.53;;;;;;;5.85;76.21;101217.50;5048961;28;20480;-72
2023/01/20 05:41:11;;;;;;;99.93;33.70;;;;;;;6.77;75.08;101217.91;5047926;28;20044;-72
2023/01/20 05:43:37;;;;;;;93.40;31.60;;;;;;;7.00;70.50;101213.81;5047355;28;20044;-72
2023/01/20 05:46:03;;;;;;;94.03;32.23;;;;;;;7.13;69.24;101215.72;5045759;28;20044;-72
2023/01/20 05:48:28;;;;;;;95.43;32.97;;;;;;;5.93;76.09;101226.28;5032759;28;20557;-72
2023/01/20 05:50:54;;;;;;;95.07;32.23;;;;;;;6.85;74.95;101219.72;5045532;28;20108;-72
2023/01/20 05:53:19;;;;;;;82.50;31.30;;;;;;;6.99;70.98;101225.06;5079818;28;20098;-72
2023/01/20 05:55:45;;;;;;;109.37;31.10;;;;;;;6.66;73.71;101224.69;5041567;28;20397;-72
2023/01/20 05:58:11;;;;;;;92.47;31.83;;;;;;;6.06;75.24;101218.69;5036795;28;20031;-71
2023/01/20 06:00:37;;;;;;;82.03;30.17;;;;;;;7.00;71.51;101227.69;5039473;28;20026;-71
2023/01/20 06:03:02;;;;;;;90.50;31.10;;;;;;;7.06;71.04;101219.06;5032795;28;20033;-72
2023/01/20 06:05:28;;;;;;;89.37;29.60;;;;;;;6.71;71.64;101222.16;5047314;28;20044;-71
2023/01/20 06:07:54;;;;;;;87.90;30.20;;;;;;;5.85;78.07;101222.69;5045493;28;20068;-71
2023/01/20 06:10:20;;;;;;;82.50;30.33;;;;;;;6.04;78.40;101220.38;5067329;28;20397;-71
2023/01/20 06:12:52;;;;;;;83.93;30.30;;;;;;;6.41;76.58;101223.50;5060022;28;20079;-71
2023/01/20 06:15:17;;;;;;;79.90;28.87;;;;;;;6.23;74.65;101214.59;5042170;28;20029;-71
2023/01/20 06:17:43;;;;;;;79.73;30.00;;;;;;;6.62;73.05;101218.59;5048716;28;20037;-71
2023/01/20 06:20:09;;;;;;;74.17;29.93;;;;;;;6.12;75.35;101218.78;5035191;28;20037;-71
2023/01/20 06:22:35;;;;;;;69.77;27.97;;;;;;;6.84;72.51;101218.84;5042817;28;20032;-71
2023/01/20 06:25:00;;;;;;;77.63;27.63;;;;;;;6.91;72.73;101220.66;5048631;28;20075;-70
2023/01/20 06:27:25;;;;;;;75.00;28.37;;;;;;;6.87;71.69;101223.19;5049473;28;20075;-71
2023/01/20 06:29:51;;;;;;;76.00;28.93;;;;;;;6.81;74.95;101218.81;5047194;28;20539;-72
2023/01/20 06:32:16;;;;;;;72.50;27.77;;;;;;;6.09;77.67;101216.16;5042005;28;20025;-71
2023/01/20 06:34:42;;;;;;;69.37;26.10;;;;;;;6.89;72.28;101217.16;5048273;28;20036;-72
2023/01/20 06:37:07;;;;;;;74.63;28.07;;;;;;;6.81;71.41;101221.41;5046527;28;20031;-71
2023/01/20 06:39:32;;;;;;;71.07;26.63;;;;;;;6.84;70.86;101218.84;5046494;28;20028;-72
2023/01/20 06:41:59;;;;;;;70.73;27.83;;;;;;;6.66;71.69;101226.41;5039184;28;20052;-71
2023/01/20 06:44:25;;;;;;;73.43;27.43;;;;;;;6.83;70.05;101217.09;5046987;28;21649;-72
2023/01/20 06:46:51;;;;;;;75.57;28.90;;;;;;;6.24;73.41;101221.56;5049637;28;20079;-71
2023/01/20 06:49:16;;;;;;;71.20;26.57;;;;;;;6.59;72.91;101218.56;5047744;28;20017;-71
2023/01/20 06:51:42;;;;;;;68.67;26.93;;;;;;;6.70;71.92;101210.00;5039007;28;20062;-71
2023/01/20 06:54:07;;;;;;;72.07;26.13;;;;;;;6.93;70.28;101224.13;5049542;28;20056;-72
2023/01/20 06:56:32;;;;;;;67.73;26.40;;;;;;;6.30;75.53;101219.91;5047179;28;20033;-72
2023/01/20 06:58:58;;;;;;;70.77;27.30;;;;;;;6.03;75.25;101226.41;5042163;28;20480;-72
2023/01/20 07:01:26;;;;;;;62.03;24.53;;;;;;;5.86;73.77;101234.78;5051938;28;20025;-72
2023/01/20 07:03:52;;;;;;;67.27;23.70;;;;;;;6.28;77.10;101228.53;5044369;28;20021;-72
2023/01/20 07:06:23;;;;;;;67.00;26.53;;;;;;;6.58;74.29;101237.59;5040015;28;20052;-72
2023/01/20 07:08:49;;;;;;;52.90;23.67;;;;;;;6.61;73.40;101235.03;5053018;28;20029;-72
2023/01/20 07:11:14;;;;;;;60.23;24.90;;;;;;;5.48;78.27;101237.63;5051842;28;20099;-72
2023/01/20 07:13:40;;;;;;;59.63;23.90;;;;;;;6.71;74.42;101233.41;5047907;28;20473;-72
2023/01/20 07:16:06;;;;;;;58.47;23.67;;;;;;;6.14;76.43;101237.84;5032641;28;20021;-72
2023/01/20 07:18:32;;;;;;;52.10;21.93;;;;;;;6.02;74.94;101248.91;5045595;28;20032;-72
2023/01/20 07:20:57;;;;;;;50.80;21.87;;;;;;;6.17;74.89;101253.47;5054893;28;20037;-73
2023/01/20 07:23:23;;;;;;;50.67;21.97;;;;;;;6.67;71.95;101256.75;5052148;28;20515;-72
2023/01/20 07:26:02;;;;;;;57.63;22.87;;;;;;;6.60;72.63;101246.25;5051812;28;20029;-72
2023/01/20 07:28:29;;;;;;;53.43;23.23;;;;;;;6.45;78.90;101251.25;5051979;28;20048;-72
2023/01/20 07:30:55;;;;;;;52.30;23.37;;;;;;;6.70;73.96;101259.38;5047360;28;20025;-72
2023/01/20 07:33:20;;;;;;;62.70;27.67;;;;;;;7.46;69.62;101261.97;5043244;28;20017;-72
2023/01/20 07:35:52;;;;;;;55.03;24.93;;;;;;;7.05;69.96;101264.16;5053038;28;20033;-72
2023/01/20 07:38:17;;;;;;;51.10;23.57;;;;;;;6.08;74.14;101266.31;5038811;28;20030;-72
2023/01/20 07:40:42;;;;;;;54.50;25.40;;;;;;;7.00;72.42;101271.88;5031591;28;20507;-72
2023/01/20 07:43:08;;;;;;;54.03;24.60;;;;;;;6.85;72.30;101272.56;5038115;28;20020;-72
2023/01/20 07:45:33;;;;;;;51.60;25.63;;;;;;;6.53;72.46;101278.22;5052328;28;20033;-72
2023/01/20 07:47:58;;;;;;;57.87;26.87;;;;;;;7.33;69.06;101269.63;5046545;28;20498;-72
2023/01/20 07:50:24;;;;;;;52.77;26.00;;;;;;;6.88;72.09;101275.22;5050809;28;20393;-72
2023/01/20 07:52:49;;;;;;;51.10;25.63;;;;;;;7.08;71.46;101271.97;5051262;28;20436;-72
2023/01/20 07:55:15;;;;;;;51.83;27.67;;;;;;;6.06;74.67;101273.22;5051650;28;20029;-72
2023/01/20 07:57:40;;;;;;;56.03;26.53;;;;;;;6.57;73.27;101277.41;5044353;28;20041;-72
2023/01/20 08:00:06;;;;;;;57.07;27.93;;;;;;;6.79;73.81;101277.69;5031391;28;20025;-72
2023/01/20 08:02:36;;;;;;;58.80;27.93;;;;;;;6.00;74.80;101278.28;5032968;28;20031;-72
2023/01/20 08:05:02;;;;;;;56.77;28.33;;;;;;;6.93;72.32;101294.31;5035875;28;20091;-72
2023/01/20 08:07:27;;;;;;;64.40;28.17;;;;;;;6.94;71.45;101296.06;5042151;28;20024;-72
2023/01/20 08:09:53;;;;;;;62.67;28.93;;;;;;;7.39;67.21;101300.91;5038888;28;20025;-72
2023/01/20 08:12:18;;;;;;;67.90;31.33;;;;;;;6.77;70.88;101301.06;5050316;28;20056;-71
2023/01/20 08:14:44;;;;;;;62.23;29.63;;;;;;;7.42;68.50;101306.16;5034877;28;20025;-72
2023/01/20 08:17:09;;;;;;;64.50;30.80;;;;;;;7.55;66.35;101308.00;5025901;28;20033;-71
2023/01/20 08:19:35;;;;;;;65.73;31.10;;;;;;;7.60;65.07;101318.47;5041588;28;20538;-72
2023/01/20 08:22:00;;;;;;;68.03;31.50;;;;;;;7.90;65.36;101320.50;5048976;28;20029;-71
2023/01/20 08:24:25;;;;;;;62.43;30.20;;;;;;;7.42;67.23;101316.56;5049916;28;20480;-71
2023/01/20 08:26:51;;;;;;;59.53;29.43;;;;;;;6.90;67.34;101309.88;5050971;28;20020;-72
2023/01/20 08:29:16;;;;;;;66.73;30.10;;;;;;;6.92;69.24;101308.19;5042259;28;20440;-71
2023/01/20 08:31:42;;;;;;;59.43;28.50;;;;;;;7.06;70.24;101318.75;5064547;28;20092;-72
2023/01/20 08:34:07;;;;;;;65.00;30.70;;;;;;;6.69;73.22;101320.88;5040271;28;20043;-71
2023/01/20 08:36:35;;;;;;;64.43;29.13;;;;;;;5.93;75.05;101344.75;5043103;28;20075;-71
2023/01/20 08:39:03;;;;;;;71.93;30.20;;;;;;;7.04;70.92;101350.78;5036408;28;20384;-71
2023/01/20 08:41:33;;;;;;;70.97;32.57;;;;;;;7.33;68.20;101352.84;5079698;28;20029;-72
2023/01/20 08:44:00;;;;;;;71.37;32.03;;;;;;;6.52;70.84;101346.59;5050181;28;20016;-72
2023/01/20 08:46:26;;;;;;;72.20;32.03;;;;;;;7.43;66.50;101355.59;5051348;28;20024;-72
2023/01/20 08:48:53;;;;;;;69.93;30.77;;;;;;;7.58;65.17;101349.69;5049516;28;20028;-72
2023/01/20 08:51:28;;;;;;;67.20;31.10;;;;;;;7.25;64.68;101351.03;5047514;28;20025;-72
2023/01/20 08:53:54;;;;;;;64.40;29.80;;;;;;;7.45;63.86;101353.00;5050666;28;20074;-72
2023/01/20 08:56:20;;;;;;;65.23;28.53;;;;;;;6.96;69.18;101343.75;5044632;28;20851;-72
2023/01/20 08:58:46;;;;;;;60.30;28.30;;;;;;;7.32;64.83;101351.97;5051963;28;20029;-72
2023/01/20 09:01:14;;;;;;;60.57;28.80;;;;;;;6.46;71.25;101346.50;5051722;28;20067;-73
2023/01/20 09:03:40;;;;;;;60.73;27.37;;;;;;;7.10;68.06;101335.22;5049367;28;20029;-72
2023/01/20 09:06:07;;;;;;;64.20;28.63;;;;;;;6.50;69.40;101332.72;5047868;28;20052;-73
2023/01/20 09:08:33;;;;;;;70.37;28.70;;;;;;;5.88;72.63;101336.88;5048252;28;20491;-72
2023/01/20 09:11:13;;;;;;;58.97;26.37;;;;;;;6.39;70.81;101334.28;5051233;28;20035;-72
2023/01/20 09:13:39;;;;;;;65.23;27.57;;;;;;;6.60;69.98;101333.72;5050573;28;20077;-71
2023/01/20 09:16:04;;;;;;;61.27;27.37;;;;;;;6.75;68.55;101333.94;5042590;28;20029;-70
2023/01/20 09:18:31;;;;;;;62.27;27.17;;;;;;;6.91;66.86;101344.53;5049374;28;20024;-69
2023/01/20 09:20:58;;;;;;;61.43;27.70;;;;;;;6.96;67.57;101359.34;5083874;28;20108;-70
2023/01/20 09:23:24;;;;;;;66.80;29.53;;;;;;;7.25;66.17;101361.44;5049571;28;20503;-69
2023/01/20 09:25:50;;;;;;;64.97;28.10;;;;;;;7.43;64.16;101365.09;5045583;28;20025;-69
2023/01/20 09:28:16;;;;;;;67.20;29.77;;;;;;;7.64;63.06;101357.53;5036744;28;20048;-70
2023/01/20 09:30:42;;;;;;;62.23;27.97;;;;;;;6.89;67.20;101367.91;5048940;28;20119;-69
2023/01/20 09:33:09;;;;;;;66.20;31.77;;;;;;;7.35;67.80;101366.75;5049203;28;20013;-69
2023/01/20 09:35:35;;;;;;;66.40;29.20;;;;;;;7.79;64.51;101361.16;5045271;28;20371;-68
2023/01/20 09:44:26;;;;;;;70.57;29.87;;;;;;;7.92;61.88;101370.81;5031827;28;20098;-69
2023/01/20 09:47:20;;;;;;;62.92;27.40;;;;;;;7.62;61.57;101369.66;5038558;28;20515;-69
2023/01/20 09:53:15;;;;;;;60.80;27.13;;;;;;;7.50;62.81;101366.94;5050272;28;20561;-69
2023/01/20 09:55:52;;;;;;;58.27;26.67;;;;;;;7.28;65.43;101365.78;5048138;28;20467;-69
2023/01/20 09:58:37;;;;;;;55.17;26.20;;;;;;;7.51;64.12;101373.84;5033214;28;20481;-69
2023/01/20 10:01:29;;;;;;;62.17;26.20;;;;;;;7.62;64.17;101377.47;5028927;28;20064;-69
2023/01/20 10:04:20;;;;;;;53.03;24.17;;;;;;;6.91;66.76;101386.09;5030494;28;20367;-71
2023/01/20 10:06:53;;;;;;;54.93;25.80;;;;;;;6.99;68.11;101378.44;5033034;28;20053;-71
2023/01/20 10:09:36;;;;;;;64.40;27.13;;;;;;;7.07;67.71;101382.00;5046905;28;20091;-71
2023/01/20 10:12:13;;;;;;;63.37;26.93;;;;;;;7.65;66.36;101381.81;5050232;28;20024;-71
2023/01/20 10:14:49;;;;;;;61.30;27.67;;;;;;;7.73;65.30;101381.91;5049330;28;20432;-71
2023/01/20 10:17:33;;;;;;;62.37;27.70;;;;;;;8.19;63.24;101390.16;5030482;28;20033;-71
2023/01/20 10:20:26;;;;;;;56.93;26.67;;;;;;;7.10;67.70;101392.44;5029261;28;20071;-71
2023/01/20 10:22:57;;;;;;;;;;;;;;;8.07;64.32;101390.91;5038563;28;20083;-71
2023/01/20 10:25:33;;;;;;;57.80;26.43;;;;;;;7.82;65.66;101384.63;5070153;28;19925;-71
2023/01/20 10:28:05;;;;;;;65.60;29.50;;;;;;;7.46;66.94;101385.97;5047488;28;20069;-71
2023/01/20 10:30:33;;;;;;;;;;;;;;;7.26;67.36;101383.97;5048563;28;20020;-71
2023/01/20 10:33:08;;;;;;;63.47;28.27;;;;;;;6.64;71.97;101386.59;5040345;28;19913;-70
2023/01/20 10:35:38;;;;;;;57.23;28.40;;;;;;;7.50;69.88;101387.75;5041909;28;20440;-71
2023/01/20 10:38:08;;;;;;;67.00;28.33;;;;;;;7.58;67.51;101383.50;5046614;28;20436;-71
2023/01/20 10:40:43;;;;;;;66.27;27.87;;;;;;;8.00;66.42;101393.47;5063821;28;20029;-71
2023/01/20 10:43:14;;;;;;;62.93;27.33;;;;;;;7.55;66.17;101385.19;5038746;28;20659;-71
2023/01/20 10:46:13;;;;;;;64.27;28.30;;;;;;;8.44;64.29;101385.16;5082035;28;20024;-71
2023/01/20 10:48:57;;;;;;;63.00;26.80;;;;;;;7.85;63.75;101379.44;5046146;28;20025;-71
2023/01/20 10:51:25;;;;;;;60.73;29.17;;;;;;;8.30;63.49;101388.53;5048472;28;20037;-72
2023/01/20 10:54:20;;;;;;;64.70;30.20;;;;;;;8.67;61.53;101382.75;5048203;28;20098;-72
2023/01/20 10:56:52;;;;;;;61.47;28.00;;;;;;;8.66;61.18;101376.66;5050462;28;20031;-73
2023/01/20 10:59:31;;;;;;;60.23;29.43;;;;;;;8.46;61.59;101375.63;5047765;28;20583;-70
2023/01/20 11:02:03;;;;;;;59.33;27.53;;;;;;;8.56;62.31;101374.84;5057270;28;20439;-71
2023/01/20 11:04:30;;;;;;;60.63;26.75;;;;;;;8.09;62.81;101377.91;5043251;28;20048;-71
2023/01/20 11:06:59;;;;;;;63.13;28.87;;;;;;;8.21;63.25;101378.00;5048344;28;20056;-71
2023/01/20 11:09:40;;;;;;;58.70;26.13;;;;;;;8.59;62.05;101372.28;5047429;28;20102;-71
2023/01/20 11:12:13;;;;;;;60.17;26.87;;;;;;;8.06;62.45;101378.75;5043993;28;20037;-71
2023/01/20 11:14:39;;;;;;;55.10;26.20;;;;;;;7.50;64.59;101376.44;5051513;28;20036;-71
2023/01/20 11:17:07;;;;;;;54.37;25.73;;;;;;;7.90;65.30;101377.75;5047339;28;20071;-71
2023/01/20 11:19:45;;;;;;;62.13;26.43;;;;;;;7.89;64.79;101383.81;5040321;28;20086;-72
2023/01/20 11:22:13;;;;;;;53.60;25.80;;;;;;;7.62;65.16;101382.69;5045560;28;20488;-71
2023/01/20 11:24:44;;;;;;;56.83;24.90;;;;;;;8.09;64.76;101380.50;5047299;28;20055;-72
2023/01/20 11:27:22;;;;;;;53.70;26.93;;;;;;;8.11;61.69;101391.84;5045613;28;20399;-72
2023/01/20 11:29:56;;;;;;;54.43;24.83;;;;;;;8.69;62.05;101385.38;5037668;28;20568;-71
2023/01/20 11:32:36;;;;;;;49.77;24.43;;;;;;;7.89;63.68;101385.56;5038011;28;20084;-71
2023/01/20 11:35:18;;;;;;;51.13;24.47;;;;;;;7.58;67.86;101391.31;5035285;28;20472;-71
2023/01/20 11:37:44;;;;;;;54.95;23.60;;;;;;;6.94;68.02;101381.84;5039654;28;20028;-70